sensor_id;sensor_type;location;lat;lon;timestamp;pressure;altitude;pressure_sealevel;temperature;humidity
54900;BME280;40801;41.924;25.562;2022-12-18T00:01:18;100124.53;;;12.41;80.61
54900;BME280;40801;41.924;25.562;2022-12-18T00:03:44;100142.38;;;12.42;80.34
54900;BME280;40801;41.924;25.562;2022-12-18T00:06:10;100150.31;;;12.52;80.10
54900;BME280;40801;41.924;25.562;2022-12-18T00:08:35;100149.09;;;12.45;80.35
54900;BME280;40801;41.924;25.562;2022-12-18T00:11:05;100152.19;;;12.38;81.17
54900;BME280;40801;41.924;25.562;2022-12-18T00:13:30;100153.56;;;12.35;81.60
54900;BME280;40801;41.924;25.562;2022-12-18T00:16:04;100161.91;;;12.39;81.28
54900;BME280;40801;41.924;25.562;2022-12-18T00:18:30;100159.94;;;12.45;81.29
54900;BME280;40801;41.924;25.562;2022-12-18T00:21:00;100147.38;;;12.35;81.55
54900;BME280;40801;41.924;25.562;2022-12-18T00:23:27;100164.09;;;12.37;81.83
54900;BME280;40801;41.924;25.562;2022-12-18T00:25:52;100168.50;;;12.33;82.28
54900;BME280;40801;41.924;25.562;2022-12-18T00:28:18;100181.13;;;12.37;82.08
54900;BME280;40801;41.924;25.562;2022-12-18T00:30:44;100180.22;;;12.42;81.70
54900;BME280;40801;41.924;25.562;2022-12-18T00:33:09;100173.97;;;12.47;81.86
54900;BME280;40801;41.924;25.562;2022-12-18T00:35:35;100176.06;;;12.50;81.66
54900;BME280;40801;41.924;25.562;2022-12-18T00:38:00;100178.56;;;12.46;81.63
54900;BME280;40801;41.924;25.562;2022-12-18T00:40:25;100165.84;;;12.47;81.74
54900;BME280;40801;41.924;25.562;2022-12-18T00:42:51;100181.78;;;12.48;81.83
54900;BME280;40801;41.924;25.562;2022-12-18T00:45:30;100185.66;;;12.42;82.18
54900;BME280;40801;41.924;25.562;2022-12-18T00:47:56;100178.34;;;12.43;82.51
54900;BME280;40801;41.924;25.562;2022-12-18T00:50:24;100178.06;;;12.44;82.07
54900;BME280;40801;41.924;25.562;2022-12-18T00:52:49;100184.63;;;12.38;82.61
54900;BME280;40801;41.924;25.562;2022-12-18T00:55:15;100181.13;;;12.37;82.84
54900;BME280;40801;41.924;25.562;2022-12-18T00:57:41;100188.00;;;12.49;81.39
54900;BME280;40801;41.924;25.562;2022-12-18T01:00:09;100197.25;;;12.43;81.92
54900;BME280;40801;41.924;25.562;2022-12-18T01:02:34;100189.84;;;12.34;82.55
54900;BME280;40801;41.924;25.562;2022-12-18T01:05:00;100197.25;;;12.29;82.85
54900;BME280;40801;41.924;25.562;2022-12-18T01:07:26;100202.25;;;12.35;82.17
54900;BME280;40801;41.924;25.562;2022-12-18T01:09:51;100211.38;;;12.39;82.37
54900;BME280;40801;41.924;25.562;2022-12-18T01:12:17;100214.41;;;12.38;82.49
54900;BME280;40801;41.924;25.562;2022-12-18T01:14:42;100211.38;;;12.39;82.47
54900;BME280;40801;41.924;25.562;2022-12-18T01:17:08;100224.72;;;12.36;82.78
54900;BME280;40801;41.924;25.562;2022-12-18T01:19:33;100219.50;;;12.39;82.51
54900;BME280;40801;41.924;25.562;2022-12-18T01:21:59;100210.44;;;12.49;82.33
54900;BME280;40801;41.924;25.562;2022-12-18T01:24:24;100214.34;;;12.57;81.72
54900;BME280;40801;41.924;25.562;2022-12-18T01:26:50;100212.44;;;12.57;81.97
54900;BME280;40801;41.924;25.562;2022-12-18T01:29:16;100214.84;;;12.59;81.92
54900;BME280;40801;41.924;25.562;2022-12-18T01:31:41;100210.75;;;12.61;82.20
54900;BME280;40801;41.924;25.562;2022-12-18T01:34:06;100223.28;;;12.57;82.29
54900;BME280;40801;41.924;25.562;2022-12-18T01:36:35;100214.75;;;12.50;82.57
54900;BME280;40801;41.924;25.562;2022-12-18T01:39:04;100208.03;;;12.48;82.89
54900;BME280;40801;41.924;25.562;2022-12-18T01:41:31;100202.31;;;12.49;83.04
54900;BME280;40801;41.924;25.562;2022-12-18T01:49:59;100172.47;;;12.54;82.38
54900;BME280;40801;41.924;25.562;2022-12-18T01:52:31;100172.47;;;12.54;82.47
54900;BME280;40801;41.924;25.562;2022-12-18T01:54:58;100188.09;;;12.57;82.13
54900;BME280;40801;41.924;25.562;2022-12-18T01:57:25;100190.19;;;12.60;81.37
54900;BME280;40801;41.924;25.562;2022-12-18T01:59:53;100193.13;;;12.64;81.18
54900;BME280;40801;41.924;25.562;2022-12-18T02:02:20;100174.56;;;12.57;81.38
54900;BME280;40801;41.924;25.562;2022-12-18T02:04:46;100168.75;;;12.50;82.10
54900;BME280;40801;41.924;25.562;2022-12-18T02:07:22;100162.91;;;12.43;82.50
54900;BME280;40801;41.924;25.562;2022-12-18T02:12:47;100177.25;;;12.44;81.74
54900;BME280;40801;41.924;25.562;2022-12-18T02:15:27;100180.91;;;12.34;82.78
54900;BME280;40801;41.924;25.562;2022-12-18T02:18:05;100196.19;;;12.44;82.21
54900;BME280;40801;41.924;25.562;2022-12-18T02:23:14;100216.97;;;12.62;82.02
54900;BME280;40801;41.924;25.562;2022-12-18T02:28:27;100216.25;;;12.56;82.46
54900;BME280;40801;41.924;25.562;2022-12-18T02:30:56;100221.66;;;12.56;82.86
54900;BME280;40801;41.924;25.562;2022-12-18T02:33:25;100216.06;;;12.53;83.11
54900;BME280;40801;41.924;25.562;2022-12-18T02:35:53;100216.06;;;12.53;83.15
54900;BME280;40801;41.924;25.562;2022-12-18T02:38:20;100218.66;;;12.58;83.18
54900;BME280;40801;41.924;25.562;2022-12-18T02:40:46;100222.59;;;12.65;82.67
54900;BME280;40801;41.924;25.562;2022-12-18T02:43:15;100219.56;;;12.67;82.60
54900;BME280;40801;41.924;25.562;2022-12-18T02:45:49;100229.00;;;12.69;82.96
54900;BME280;40801;41.924;25.562;2022-12-18T02:48:22;100231.13;;;12.73;82.67
54900;BME280;40801;41.924;25.562;2022-12-18T02:51:05;100233.84;;;12.73;82.81
54900;BME280;40801;41.924;25.562;2022-12-18T02:53:36;100227.59;;;12.72;82.97
54900;BME280;40801;41.924;25.562;2022-12-18T02:56:29;100235.72;;;12.72;82.75
54900;BME280;40801;41.924;25.562;2022-12-18T02:59:04;100233.41;;;12.65;83.24
54900;BME280;40801;41.924;25.562;2022-12-18T03:07:11;100244.53;;;12.64;83.40
54900;BME280;40801;41.924;25.562;2022-12-18T03:09:43;100246.44;;;12.63;83.74
54900;BME280;40801;41.924;25.562;2022-12-18T03:12:17;100243.94;;;12.67;83.78
54900;BME280;40801;41.924;25.562;2022-12-18T03:15:35;100244.41;;;12.55;84.69
54900;BME280;40801;41.924;25.562;2022-12-18T03:17:36;100235.91;;;12.62;83.34
54900;BME280;40801;41.924;25.562;2022-12-18T03:20:09;100240.00;;;12.59;83.50
54900;BME280;40801;41.924;25.562;2022-12-18T03:22:37;100244.53;;;12.64;83.38
54900;BME280;40801;41.924;25.562;2022-12-18T03:25:06;100243.81;;;12.58;83.39
54900;BME280;40801;41.924;25.562;2022-12-18T03:27:33;100250.94;;;12.54;83.79
54900;BME280;40801;41.924;25.562;2022-12-18T03:30:06;100257.75;;;12.65;82.96
54900;BME280;40801;41.924;25.562;2022-12-18T03:32:41;100258.84;;;12.64;83.00
54900;BME280;40801;41.924;25.562;2022-12-18T03:35:09;100250.34;;;12.71;82.87
54900;BME280;40801;41.924;25.562;2022-12-18T03:37:36;100261.72;;;12.73;82.76
54900;BME280;40801;41.924;25.562;2022-12-18T03:40:03;100256.06;;;12.69;83.19
54900;BME280;40801;41.924;25.562;2022-12-18T03:45:12;100266.59;;;12.71;83.77
54900;BME280;40801;41.924;25.562;2022-12-18T03:50:44;100284.66;;;12.76;83.35
54900;BME280;40801;41.924;25.562;2022-12-18T03:55:50;100285.97;;;12.78;83.16
54900;BME280;40801;41.924;25.562;2022-12-18T03:58:19;100294.91;;;12.79;83.35
54900;BME280;40801;41.924;25.562;2022-12-18T04:00:45;100289.84;;;12.72;83.05
54900;BME280;40801;41.924;25.562;2022-12-18T04:03:13;100298.19;;;12.76;83.27
54900;BME280;40801;41.924;25.562;2022-12-18T04:05:40;100291.69;;;12.77;83.62
54900;BME280;40801;41.924;25.562;2022-12-18T04:08:08;100301.63;;;12.81;83.11
54900;BME280;40801;41.924;25.562;2022-12-18T04:10:34;100298.81;;;12.86;83.00
54900;BME280;40801;41.924;25.562;2022-12-18T04:12:59;100301.03;;;12.84;82.89
54900;BME280;40801;41.924;25.562;2022-12-18T04:15:25;100309.66;;;12.86;83.05
54900;BME280;40801;41.924;25.562;2022-12-18T04:17:50;100298.53;;;12.88;83.26
54900;BME280;40801;41.924;25.562;2022-12-18T04:20:16;100313.06;;;12.92;83.21
54900;BME280;40801;41.924;25.562;2022-12-18T04:22:42;100314.69;;;12.93;82.72
54900;BME280;40801;41.924;25.562;2022-12-18T04:25:08;100314.16;;;12.91;83.00
54900;BME280;40801;41.924;25.562;2022-12-18T04:27:34;100317.38;;;12.93;83.03
54900;BME280;40801;41.924;25.562;2022-12-18T04:29:59;100324.41;;;12.94;83.25
54900;BME280;40801;41.924;25.562;2022-12-18T04:32:25;100319.00;;;12.94;83.44
54900;BME280;40801;41.924;25.562;2022-12-18T04:34:50;100325.09;;;12.86;83.83
54900;BME280;40801;41.924;25.562;2022-12-18T04:37:16;100322.50;;;12.94;83.75
54900;BME280;40801;41.924;25.562;2022-12-18T04:39:41;100324.59;;;12.97;83.50
54900;BME280;40801;41.924;25.562;2022-12-18T04:42:07;100332.22;;;12.95;83.97
54900;BME280;40801;41.924;25.562;2022-12-18T04:44:32;100330.53;;;12.99;83.52
54900;BME280;40801;41.924;25.562;2022-12-18T04:46:57;100331.63;;;12.98;83.40
54900;BME280;40801;41.924;25.562;2022-12-18T04:49:23;100338.88;;;13.03;83.40
54900;BME280;40801;41.924;25.562;2022-12-18T04:51:48;100329.97;;;13.02;83.23
54900;BME280;40801;41.924;25.562;2022-12-18T04:54:14;100330.97;;;13.07;83.15
54900;BME280;40801;41.924;25.562;2022-12-18T04:56:39;100326.66;;;13.06;82.85
54900;BME280;40801;41.924;25.562;2022-12-18T04:59:04;100338.19;;;13.11;83.03
54900;BME280;40801;41.924;25.562;2022-12-18T05:01:30;100337.91;;;13.13;82.97
54900;BME280;40801;41.924;25.562;2022-12-18T05:03:55;100339.00;;;13.12;82.63
54900;BME280;40801;41.924;25.562;2022-12-18T05:06:21;100353.13;;;13.09;82.48
54900;BME280;40801;41.924;25.562;2022-12-18T05:08:46;100347.50;;;13.05;82.89
54900;BME280;40801;41.924;25.562;2022-12-18T05:11:14;100349.81;;;13.12;82.64
54900;BME280;40801;41.924;25.562;2022-12-18T05:13:44;100342.31;;;13.09;83.10
54900;BME280;40801;41.924;25.562;2022-12-18T05:16:10;100350.72;;;13.07;83.12
54900;BME280;40801;41.924;25.562;2022-12-18T05:18:35;100360.47;;;13.08;83.24
54900;BME280;40801;41.924;25.562;2022-12-18T05:21:01;100353.44;;;13.07;83.36
54900;BME280;40801;41.924;25.562;2022-12-18T05:23:27;100360.47;;;13.08;83.24
54900;BME280;40801;41.924;25.562;2022-12-18T05:25:57;100356.34;;;13.11;83.40
54900;BME280;40801;41.924;25.562;2022-12-18T05:28:25;100360.47;;;13.08;83.15
54900;BME280;40801;41.924;25.562;2022-12-18T05:30:53;100364.78;;;13.09;83.08
54900;BME280;40801;41.924;25.562;2022-12-18T05:33:20;100367.19;;;13.11;83.01
54900;BME280;40801;41.924;25.562;2022-12-18T05:35:57;100372.91;;;13.09;83.12
54900;BME280;40801;41.924;25.562;2022-12-18T05:38:24;100373.41;;;13.11;83.25
54900;BME280;40801;41.924;25.562;2022-12-18T05:40:50;100376.41;;;13.10;83.12
54900;BME280;40801;41.924;25.562;2022-12-18T05:43:17;100393.47;;;13.10;83.86
54900;BME280;40801;41.924;25.562;2022-12-18T05:45:42;100394.06;;;13.07;83.80
54900;BME280;40801;41.924;25.562;2022-12-18T05:48:08;100395.66;;;13.08;83.48
54900;BME280;40801;41.924;25.562;2022-12-18T05:50:38;100405.09;;;13.11;83.45
54900;BME280;40801;41.924;25.562;2022-12-18T05:53:05;100401.59;;;13.10;83.90
54900;BME280;40801;41.924;25.562;2022-12-18T05:55:35;100406.78;;;13.07;84.03
54900;BME280;40801;41.924;25.562;2022-12-18T05:58:02;100407.09;;;13.05;84.03
54900;BME280;40801;41.924;25.562;2022-12-18T06:00:28;100411.91;;;13.08;83.68
54900;BME280;40801;41.924;25.562;2022-12-18T06:02:54;100412.50;;;13.05;83.92
54900;BME280;40801;41.924;25.562;2022-12-18T06:05:19;100426.75;;;13.11;83.67
54900;BME280;40801;41.924;25.562;2022-12-18T06:07:45;100415.94;;;13.11;83.73
54900;BME280;40801;41.924;25.562;2022-12-18T06:10:10;100419.13;;;13.13;83.81
54900;BME280;40801;41.924;25.562;2022-12-18T06:12:36;100425.56;;;13.17;83.47
54900;BME280;40801;41.924;25.562;2022-12-18T06:15:02;100437.25;;;13.17;83.48
54900;BME280;40801;41.924;25.562;2022-12-18T06:17:32;100443.72;;;13.16;83.61
54900;BME280;40801;41.924;25.562;2022-12-18T06:19:58;100442.28;;;13.05;83.61
54900;BME280;40801;41.924;25.562;2022-12-18T06:22:24;100446.41;;;13.02;83.57
54900;BME280;40801;41.924;25.562;2022-12-18T06:24:49;100445.59;;;13.02;83.73
54900;BME280;40801;41.924;25.562;2022-12-18T06:27:15;100449.75;;;12.94;84.37
54900;BME280;40801;41.924;25.562;2022-12-18T06:29:41;100458.53;;;13.05;83.45
54900;BME280;40801;41.924;25.562;2022-12-18T06:32:06;100463.50;;;12.98;83.17
54900;BME280;40801;41.924;25.562;2022-12-18T06:34:32;100462.34;;;13.04;82.68
54900;BME280;40801;41.924;25.562;2022-12-18T06:36:57;100473.09;;;13.09;82.41
54900;BME280;40801;41.924;25.562;2022-12-18T06:39:23;100482.69;;;13.01;82.54
54900;BME280;40801;41.924;25.562;2022-12-18T06:41:48;100488.53;;;13.09;81.59
54900;BME280;40801;41.924;25.562;2022-12-18T06:44:14;100494.03;;;13.03;81.69
54900;BME280;40801;41.924;25.562;2022-12-18T06:46:39;100500.84;;;13.01;80.85
54900;BME280;40801;41.924;25.562;2022-12-18T06:49:04;100501.47;;;12.93;80.67
54900;BME280;40801;41.924;25.562;2022-12-18T06:51:30;100505.06;;;12.88;80.72
54900;BME280;40801;41.924;25.562;2022-12-18T06:53:55;100513.28;;;12.83;80.06
54900;BME280;40801;41.924;25.562;2022-12-18T06:56:21;100506.69;;;12.89;79.65
54900;BME280;40801;41.924;25.562;2022-12-18T06:58:47;100514.50;;;12.91;79.16
54900;BME280;40801;41.924;25.562;2022-12-18T07:01:13;100519.28;;;12.80;78.86
54900;BME280;40801;41.924;25.562;2022-12-18T07:03:40;100528.09;;;12.67;78.83
54900;BME280;40801;41.924;25.562;2022-12-18T07:06:06;100544.81;;;12.74;78.29
54900;BME280;40801;41.924;25.562;2022-12-18T07:08:33;100542.50;;;12.62;78.59
54900;BME280;40801;41.924;25.562;2022-12-18T07:10:59;100553.47;;;12.71;77.91
54900;BME280;40801;41.924;25.562;2022-12-18T07:13:24;100560.75;;;12.52;76.98
54900;BME280;40801;41.924;25.562;2022-12-18T07:15:50;100559.66;;;12.53;76.17
54900;BME280;40801;41.924;25.562;2022-12-18T07:18:15;100567.06;;;12.42;75.88
54900;BME280;40801;41.924;25.562;2022-12-18T07:20:40;100568.06;;;12.27;75.51
54900;BME280;40801;41.924;25.562;2022-12-18T07:23:06;100567.34;;;12.46;75.61
54900;BME280;40801;41.924;25.562;2022-12-18T07:25:36;100568.66;;;12.48;75.29
54900;BME280;40801;41.924;25.562;2022-12-18T07:28:01;100574.75;;;12.59;75.46
54900;BME280;40801;41.924;25.562;2022-12-18T07:30:27;100571.59;;;12.52;75.69
54900;BME280;40801;41.924;25.562;2022-12-18T07:32:52;100577.34;;;12.45;75.17
54900;BME280;40801;41.924;25.562;2022-12-18T07:35:17;100577.88;;;12.47;75.35
54900;BME280;40801;41.924;25.562;2022-12-18T07:37:43;100578.16;;;12.46;75.72
54900;BME280;40801;41.924;25.562;2022-12-18T07:40:10;100576.47;;;12.50;75.36
54900;BME280;40801;41.924;25.562;2022-12-18T07:42:35;100581.88;;;12.50;75.03
54900;BME280;40801;41.924;25.562;2022-12-18T07:45:02;100588.41;;;12.49;74.91
54900;BME280;40801;41.924;25.562;2022-12-18T07:47:28;100598.13;;;12.50;75.23
54900;BME280;40801;41.924;25.562;2022-12-18T07:49:56;100601.06;;;12.53;75.30
54900;BME280;40801;41.924;25.562;2022-12-18T07:52:23;100600.69;;;12.36;75.59
54900;BME280;40801;41.924;25.562;2022-12-18T07:54:48;100609.00;;;12.45;75.22
54900;BME280;40801;41.924;25.562;2022-12-18T07:57:16;100608.75;;;12.41;75.17
54900;BME280;40801;41.924;25.562;2022-12-18T07:59:41;100621.75;;;12.39;75.11
54900;BME280;40801;41.924;25.562;2022-12-18T08:02:07;100625.03;;;12.36;75.08
54900;BME280;40801;41.924;25.562;2022-12-18T08:04:32;100628.59;;;12.31;75.07
54900;BME280;40801;41.924;25.562;2022-12-18T08:06:58;100631.94;;;12.23;75.50
54900;BME280;40801;41.924;25.562;2022-12-18T08:09:23;100632.16;;;12.27;75.35
54900;BME280;40801;41.924;25.562;2022-12-18T08:11:49;100632.97;;;12.27;75.61
54900;BME280;40801;41.924;25.562;2022-12-18T08:14:14;100641.84;;;12.33;75.42
54900;BME280;40801;41.924;25.562;2022-12-18T08:16:40;100635.44;;;12.24;75.65
54900;BME280;40801;41.924;25.562;2022-12-18T08:19:05;100638.63;;;12.31;75.64
54900;BME280;40801;41.924;25.562;2022-12-18T08:21:31;100633.66;;;12.38;75.36
54900;BME280;40801;41.924;25.562;2022-12-18T08:24:01;100651.69;;;12.24;75.20
54900;BME280;40801;41.924;25.562;2022-12-18T08:26:28;100651.16;;;12.22;75.21
54900;BME280;40801;41.924;25.562;2022-12-18T08:28:56;100656.28;;;12.23;74.85
54900;BME280;40801;41.924;25.562;2022-12-18T08:31:21;100668.47;;;12.21;74.70
54900;BME280;40801;41.924;25.562;2022-12-18T08:33:51;100664.97;;;12.20;74.32
54900;BME280;40801;41.924;25.562;2022-12-18T08:36:17;100662.19;;;12.25;74.30
54900;BME280;40801;41.924;25.562;2022-12-18T08:38:43;100657.84;;;12.29;73.81
54900;BME280;40801;41.924;25.562;2022-12-18T08:41:11;100664.81;;;12.35;73.59
54900;BME280;40801;41.924;25.562;2022-12-18T08:43:37;100671.34;;;12.29;74.21
54900;BME280;40801;41.924;25.562;2022-12-18T08:46:22;100667.50;;;12.06;74.01
54900;BME280;40801;41.924;25.562;2022-12-18T08:48:51;100675.78;;;12.20;73.78
54900;BME280;40801;41.924;25.562;2022-12-18T08:51:17;100670.44;;;12.10;73.85
54900;BME280;40801;41.924;25.562;2022-12-18T08:53:43;100679.41;;;12.05;73.91
54900;BME280;40801;41.924;25.562;2022-12-18T08:56:09;100679.25;;;11.92;73.73
54900;BME280;40801;41.924;25.562;2022-12-18T08:58:35;100671.91;;;11.97;74.38
54900;BME280;40801;41.924;25.562;2022-12-18T09:01:05;100670.47;;;12.05;74.13
54900;BME280;40801;41.924;25.562;2022-12-18T09:03:31;100670.66;;;12.19;73.87
54900;BME280;40801;41.924;25.562;2022-12-18T09:05:57;100667.66;;;12.20;74.18
54900;BME280;40801;41.924;25.562;2022-12-18T09:08:23;100677.06;;;12.28;73.52
54900;BME280;40801;41.924;25.562;2022-12-18T09:10:49;100675.44;;;12.27;73.24
54900;BME280;40801;41.924;25.562;2022-12-18T09:13:16;100678.16;;;12.27;73.29
54900;BME280;40801;41.924;25.562;2022-12-18T09:15:43;100674.94;;;11.91;73.50
54900;BME280;40801;41.924;25.562;2022-12-18T09:18:10;100670.66;;;12.14;73.11
54900;BME280;40801;41.924;25.562;2022-12-18T09:20:37;100670.47;;;12.05;73.46
54900;BME280;40801;41.924;25.562;2022-12-18T09:23:03;100667.88;;;11.95;74.04
54900;BME280;40801;41.924;25.562;2022-12-18T09:25:29;100665.69;;;11.97;73.79
54900;BME280;40801;41.924;25.562;2022-12-18T09:28:18;100672.94;;;11.62;73.63
54900;BME280;40801;41.924;25.562;2022-12-18T09:30:48;100673.06;;;11.86;72.89
54900;BME280;40801;41.924;25.562;2022-12-18T09:33:15;100670.81;;;11.98;72.94
54900;BME280;40801;41.924;25.562;2022-12-18T09:35:42;100678.97;;;11.93;72.55
54900;BME280;40801;41.924;25.562;2022-12-18T09:38:09;100684.03;;;12.00;72.39
54900;BME280;40801;41.924;25.562;2022-12-18T09:40:42;100680.09;;;11.82;71.70
54900;BME280;40801;41.924;25.562;2022-12-18T09:43:55;100677.03;;;11.99;71.52
54900;BME280;40801;41.924;25.562;2022-12-18T09:46:04;100683.84;;;11.91;71.42
54900;BME280;40801;41.924;25.562;2022-12-18T09:48:35;100689.78;;;11.93;71.61
54900;BME280;40801;41.924;25.562;2022-12-18T09:51:30;100677.63;;;11.91;70.75
54900;BME280;40801;41.924;25.562;2022-12-18T09:54:03;100675.16;;;11.94;71.28
54900;BME280;40801;41.924;25.562;2022-12-18T09:56:34;100674.84;;;12.01;71.75
54900;BME280;40801;41.924;25.562;2022-12-18T09:59:02;100675.31;;;12.08;71.58
54900;BME280;40801;41.924;25.562;2022-12-18T10:01:29;100660.47;;;12.05;71.84
54900;BME280;40801;41.924;25.562;2022-12-18T10:03:55;100669.59;;;12.15;72.12
54900;BME280;40801;41.924;25.562;2022-12-18T10:12:08;100676.59;;;12.21;73.63
54900;BME280;40801;41.924;25.562;2022-12-18T10:15:08;100676.63;;;12.16;74.84
54900;BME280;40801;41.924;25.562;2022-12-18T10:17:42;100680.63;;;12.23;74.20
54900;BME280;40801;41.924;25.562;2022-12-18T10:20:17;100676.78;;;12.29;74.15
54900;BME280;40801;41.924;25.562;2022-12-18T10:23:04;100678.16;;;12.27;74.82
54900;BME280;40801;41.924;25.562;2022-12-18T10:25:47;100666.56;;;12.21;74.83
54900;BME280;40801;41.924;25.562;2022-12-18T10:28:16;100667.09;;;12.23;74.85
54900;BME280;40801;41.924;25.562;2022-12-18T10:30:43;100676.00;;;12.24;75.48
54900;BME280;40801;41.924;25.562;2022-12-18T10:33:20;100683.78;;;12.30;75.34
54900;BME280;40801;41.924;25.562;2022-12-18T10:35:48;100680.00;;;12.31;75.49
54900;BME280;40801;41.924;25.562;2022-12-18T10:46:36;100680.66;;;12.18;77.37
54900;BME280;40801;41.924;25.562;2022-12-18T10:49:02;100677.44;;;12.16;77.69
54900;BME280;40801;41.924;25.562;2022-12-18T10:51:33;100679.69;;;12.04;79.06
54900;BME280;40801;41.924;25.562;2022-12-18T10:54:00;100692.81;;;11.87;79.34
54900;BME280;40801;41.924;25.562;2022-12-18T10:56:28;100690.69;;;11.78;79.80
54900;BME280;40801;41.924;25.562;2022-12-18T10:59:02;100696.31;;;11.82;79.34
54900;BME280;40801;41.924;25.562;2022-12-18T11:01:51;100696.84;;;11.89;79.79
54900;BME280;40801;41.924;25.562;2022-12-18T11:04:29;100696.84;;;11.84;80.07
54900;BME280;40801;41.924;25.562;2022-12-18T11:07:05;100697.88;;;11.93;79.13
54900;BME280;40801;41.924;25.562;2022-12-18T11:09:32;100705.16;;;11.98;79.51
54900;BME280;40801;41.924;25.562;2022-12-18T11:12:00;100705.72;;;11.95;79.76
54900;BME280;40801;41.924;25.562;2022-12-18T11:14:29;100703.78;;;12.00;79.42
54900;BME280;40801;41.924;25.562;2022-12-18T11:16:57;100707.25;;;12.06;79.51
54900;BME280;40801;41.924;25.562;2022-12-18T11:19:34;100719.38;;;12.08;79.70
54900;BME280;40801;41.924;25.562;2022-12-18T11:22:02;100717.91;;;11.92;80.30
54900;BME280;40801;41.924;25.562;2022-12-18T11:24:32;100723.53;;;11.96;80.06
54900;BME280;40801;41.924;25.562;2022-12-18T11:27:05;100712.22;;;11.94;80.34
54900;BME280;40801;41.924;25.562;2022-12-18T11:29:38;100722.22;;;11.93;80.09
54900;BME280;40801;41.924;25.562;2022-12-18T11:32:25;100727.66;;;11.83;81.01
54900;BME280;40801;41.924;25.562;2022-12-18T11:35:01;100722.00;;;11.79;81.31
54900;BME280;40801;41.924;25.562;2022-12-18T11:37:28;100717.53;;;11.60;82.13
54900;BME280;40801;41.924;25.562;2022-12-18T11:42:46;100725.94;;;11.48;83.28
54900;BME280;40801;41.924;25.562;2022-12-18T11:47:49;100724.03;;;11.48;83.38
54900;BME280;40801;41.924;25.562;2022-12-18T11:50:20;100722.41;;;11.53;82.73
54900;BME280;40801;41.924;25.562;2022-12-18T11:52:47;100712.13;;;11.55;82.66
54900;BME280;40801;41.924;25.562;2022-12-18T11:57:57;100714.84;;;11.49;83.27
54900;BME280;40801;41.924;25.562;2022-12-18T12:00:25;100711.03;;;11.56;82.80
54900;BME280;40801;41.924;25.562;2022-12-18T12:03:21;100718.34;;;11.55;83.05
54900;BME280;40801;41.924;25.562;2022-12-18T12:24:54;100735.75;;;11.34;83.24
54900;BME280;40801;41.924;25.562;2022-12-18T12:30:35;100736.25;;;11.41;82.07
54900;BME280;40801;41.924;25.562;2022-12-18T12:33:19;100735.66;;;11.49;81.56
54900;BME280;40801;41.924;25.562;2022-12-18T12:38:27;100738.72;;;11.32;81.60
54900;BME280;40801;41.924;25.562;2022-12-18T12:40:58;100743.81;;;11.39;81.57
54900;BME280;40801;41.924;25.562;2022-12-18T12:46:06;100753.53;;;11.40;81.59
54900;BME280;40801;41.924;25.562;2022-12-18T12:48:55;100759.31;;;11.13;81.84
54900;BME280;40801;41.924;25.562;2022-12-18T12:51:22;100765.50;;;11.13;81.77
54900;BME280;40801;41.924;25.562;2022-12-18T12:53:49;100758.19;;;11.19;80.96
54900;BME280;40801;41.924;25.562;2022-12-18T12:56:18;100770.66;;;11.10;80.93
54900;BME280;40801;41.924;25.562;2022-12-18T13:01:32;100785.78;;;11.01;80.21
54900;BME280;40801;41.924;25.562;2022-12-18T13:07:14;100788.50;;;10.91;78.59
54900;BME280;40801;41.924;25.562;2022-12-18T13:13:11;100799.84;;;10.82;78.60
54900;BME280;40801;41.924;25.562;2022-12-18T13:21:01;100814.69;;;10.80;77.81
54900;BME280;40801;41.924;25.562;2022-12-18T13:31:11;100839.78;;;10.75;77.99
54900;BME280;40801;41.924;25.562;2022-12-18T13:33:44;100838.97;;;10.80;77.66
54900;BME280;40801;41.924;25.562;2022-12-18T13:38:39;100833.31;;;10.71;78.36
54900;BME280;40801;41.924;25.562;2022-12-18T13:43:56;100845.19;;;10.75;78.70
54900;BME280;40801;41.924;25.562;2022-12-18T13:46:48;100848.94;;;10.64;79.55
54900;BME280;40801;41.924;25.562;2022-12-18T13:49:37;100844.09;;;10.56;80.23
54900;BME280;40801;41.924;25.562;2022-12-18T13:52:17;100841.13;;;10.52;80.49
54900;BME280;40801;41.924;25.562;2022-12-18T13:54:47;100840.31;;;10.57;80.46
54900;BME280;40801;41.924;25.562;2022-12-18T13:57:34;100834.91;;;10.62;80.19
54900;BME280;40801;41.924;25.562;2022-12-18T14:02:44;100844.34;;;10.65;80.46
54900;BME280;40801;41.924;25.562;2022-12-18T14:05:31;100844.91;;;10.62;80.04
54900;BME280;40801;41.924;25.562;2022-12-18T14:08:15;100850.03;;;10.53;80.44
54900;BME280;40801;41.924;25.562;2022-12-18T14:10:42;100853.25;;;10.45;80.94
54900;BME280;40801;41.924;25.562;2022-12-18T14:13:10;100859.97;;;10.37;80.86
54900;BME280;40801;41.924;25.562;2022-12-18T14:15:41;100860.75;;;10.28;81.02
54900;BME280;40801;41.924;25.562;2022-12-18T14:20:44;100880.44;;;10.28;80.69
54900;BME280;40801;41.924;25.562;2022-12-18T14:23:34;100886.38;;;10.30;80.45
54900;BME280;40801;41.924;25.562;2022-12-18T14:26:02;100884.22;;;10.27;80.71
54900;BME280;40801;41.924;25.562;2022-12-18T14:28:28;100891.22;;;10.28;80.61
54900;BME280;40801;41.924;25.562;2022-12-18T14:30:55;100899.03;;;10.24;80.84
54900;BME280;40801;41.924;25.562;2022-12-18T14:33:26;100893.38;;;10.26;80.51
54900;BME280;40801;41.924;25.562;2022-12-18T14:36:00;100896.63;;;10.28;80.25
54900;BME280;40801;41.924;25.562;2022-12-18T14:38:37;100889.25;;;10.08;80.73
54900;BME280;40801;41.924;25.562;2022-12-18T14:41:14;100892.56;;;10.20;79.94